Time;durP1;ratioP1;P1;durP2;ratioP2;P2;SDS_P1;SDS_P2;PMS_P1;PMS_P2;Temp;Humidity;BMP_temperature;BMP_pressure;BME280_temperature;BME280_humidity;BME280_pressure;Samples;Min_cycle;Max_cycle;Signal;HPM_P1;HPM_P2
2023/02/28 00:00:19;;;;;;;;;;;;;;;-144.99;83.58;52513.31;5048276;28;20086;-69
2023/02/28 00:02:46;;;;;;;;;;;;;;;-144.99;83.18;52488.84;5046630;28;19950;-69
2023/02/28 00:05:14;;;;;;;;;;;;;;;-144.99;82.90;52492.94;5045955;28;19925;-69
2023/02/28 00:07:41;;;;;;;;;;;;;;;-144.99;82.74;52503.13;5047969;28;20500;-68
2023/02/28 00:10:10;;;;;;;;;;;;;;;-144.99;82.27;52527.59;5047717;28;19991;-65
2023/02/28 00:12:37;;;;;;;;;;;;;;;-144.99;82.11;52507.19;5047897;28;19932;-72
2023/02/28 00:15:06;;;;;;;;;;;;;;;-144.99;81.85;52497.00;5047032;28;19925;-72
2023/02/28 00:17:33;;;;;;;;;;;;;;;-144.99;81.32;52476.63;5045418;28;19925;-72
2023/02/28 00:20:04;;;;;;;;;;;;;;;-144.99;81.24;52497.00;5048288;28;19929;-72
2023/02/28 00:22:32;;;;;;;;;;;;;;;-144.99;81.27;52480.72;5038827;28;19968;-73
2023/02/28 00:24:58;;;;;;;;;;;;;;;-144.99;80.77;52464.41;5048084;28;19990;-73
2023/02/28 00:27:25;;;;;;;;;;;;;;;-144.99;80.69;52513.31;5047202;28;19933;-73
2023/02/28 00:29:53;;;;;;;;;;;;;;;-144.99;80.58;52505.16;5047094;28;19978;-74
2023/02/28 00:32:20;;;;;;;;;;;;;;;-144.99;80.65;52503.13;5047795;28;19944;-73
2023/02/28 00:34:47;;;;;;;;;;;;;;;-144.99;80.55;52519.44;5040834;28;19972;-73
2023/02/28 00:37:13;;;;;;;;;;;;;;;-144.99;80.33;52480.72;5046681;28;20354;-73
2023/02/28 00:39:41;;;;;;;;;;;;;;;-144.99;80.39;52456.25;5047522;28;19970;-74
2023/02/28 00:42:08;;;;;;;;;;;;;;;-144.99;80.18;52427.72;5046822;28;19971;-75
2023/02/28 00:44:35;;;;;;;;;;;;;;;-144.99;80.25;52497.00;5048162;28;20398;-72
2023/02/28 00:47:01;;;;;;;;;;;;;;;-144.99;80.27;52521.47;5046500;28;19932;-70
2023/02/28 00:49:28;;;;;;;;;;;;;;;-144.99;80.41;52511.28;5048121;28;20290;-75
2023/02/28 00:51:55;;;;;;;;;;;;;;;-144.99;80.41;52505.16;5048525;28;19929;-71
2023/02/28 00:54:22;;;;;;;;;;;;;;;-144.99;80.49;52541.84;5043787;28;20100;-74
2023/02/28 00:56:50;;;;;;;;;;;;;;;-144.99;80.63;52505.16;5045293;28;19994;-72
2023/02/28 00:59:18;;;;;;;;;;;;;;;-144.99;80.59;52501.09;5047178;28;20392;-73
2023/02/28 01:01:45;;;;;;;;;;;;;;;-144.99;80.52;52484.78;5045371;28;19968;-74
2023/02/28 01:04:12;;;;;;;;;;;;;;;-144.99;80.73;52501.09;5045881;28;19952;-73
2023/02/28 01:06:39;;;;;;;;;;;;;;;-144.99;80.68;52570.38;5044005;28;19930;-72
2023/02/28 01:09:06;;;;;;;;;;;;;;;-144.99;80.83;52501.09;5035608;28;20061;-72
2023/02/28 01:11:33;;;;;;;;;;;;;;;-144.99;80.59;52472.56;5042401;28;19972;-73
2023/02/28 01:14:00;;;;;;;;;;;;;;;-144.99;80.07;52488.84;5043047;28;20023;-69
2023/02/28 01:16:27;;;;;;;;;;;;;;;-144.99;79.80;52476.63;5044838;28;20281;-68
2023/02/28 01:18:54;;;;;;;;;;;;;;;-144.99;79.69;52472.56;5046469;28;19986;-68
2023/02/28 01:21:21;;;;;;;;;;;;;;;-144.99;79.79;52505.16;5047344;28;19929;-66
2023/02/28 01:23:49;;;;;;;;;;;;;;;-144.99;79.72;52505.16;5044921;28;20498;-65
2023/02/28 01:26:16;;;;;;;;;;;;;;;-144.99;79.75;52488.84;5046144;28;19968;-65
2023/02/28 01:28:43;;;;;;;;;;;;;;;-144.99;80.13;52501.09;5043720;28;19976;-68
2023/02/28 01:31:11;;;;;;;;;;;;;;;-144.99;80.16;52497.00;5054094;28;20006;-71
2023/02/28 01:33:38;;;;;;;;;;;;;;;-144.99;79.93;52503.13;5050828;28;19975;-73
2023/02/28 01:36:06;;;;;;;;;;;;;;;-144.99;79.98;52497.00;5051245;28;20294;-75
2023/02/28 01:38:33;;;;;;;;;;;;;;;-144.99;80.24;52525.56;5050956;28;19929;-75
2023/02/28 01:40:59;;;;;;;;;;;;;;;-144.99;80.58;52521.47;5052324;28;20378;-75
2023/02/28 01:43:27;;;;;;;;;;;;;;;-144.99;80.57;52509.25;5055728;28;19928;-76
2023/02/28 01:45:54;;;;;;;;;;;;;;;-144.99;80.61;52497.00;5056971;28;19948;-76
2023/02/28 01:48:25;;;;;;;;;;;;;;;-144.99;80.53;52509.25;5049434;28;20425;-77
2023/02/28 01:50:52;;;;;;;;;;;;;;;-144.99;80.69;52537.78;5050915;28;20281;-76
2023/02/28 01:53:20;;;;;;;;;;;;;;;-144.99;80.60;52472.56;5047692;28;20018;-76
2023/02/28 01:55:49;;;;;;;;;;;;;;;-144.99;80.63;52460.31;5046676;28;19960;-76
2023/02/28 01:58:15;;;;;;;;;;;;;;;-144.99;80.56;52513.31;5051140;28;19929;-76
2023/02/28 02:00:42;;;;;;;;;;;;;;;-144.99;80.61;52480.72;5050910;28;19967;-76
2023/02/28 02:03:11;;;;;;;;;;;;;;;-144.99;80.39;52507.19;5048160;28;20347;-77
2023/02/28 02:05:39;;;;;;;;;;;;;;;-144.99;80.61;52517.41;5060540;28;19929;-76
2023/02/28 02:08:07;;;;;;;;;;;;;;;-144.99;80.80;52503.13;5044913;28;19929;-76
2023/02/28 02:10:36;;;;;;;;;;;;;;;-144.99;80.71;52505.16;5050451;28;19949;-76
2023/02/28 02:13:15;;;;;;;;;;;;;;;-144.99;80.62;52488.84;5043448;28;20032;-76
2023/02/28 02:15:43;;;;;;;;;;;;;;;-144.99;80.39;52476.63;5046353;28;20024;-76
2023/02/28 02:18:17;;;;;;;;;;;;;;;-144.99;80.73;52525.56;5048350;28;20155;-76
2023/02/28 02:21:10;;;;;;;;;;;;;;;-144.99;80.68;52497.00;5044075;28;19994;-76
2023/02/28 02:23:58;;;;;;;;;;;;;;;-144.99;81.06;52499.06;5005652;28;20044;-74
2023/02/28 02:26:36;;;;;;;;;;;;;;;-144.99;81.03;52513.31;5050179;28;20060;-76
2023/02/28 02:29:17;;;;;;;;;;;;;;;-144.99;81.67;52482.75;5046225;28;20026;-76
2023/02/28 02:32:02;;;;;;;;;;;;;;;-144.99;81.79;52497.00;5062175;28;19936;-76
2023/02/28 02:34:42;;;;;;;;;;;;;;;-144.99;81.68;52492.94;5056152;28;19924;-76
2023/02/28 02:37:13;;;;;;;;;;;;;;;-144.99;81.77;52552.03;5048962;28;19971;-69
2023/02/28 02:39:44;;;;;;;;;;;;;;;-144.99;82.16;52513.31;5050140;28;19948;-69
2023/02/28 02:42:15;;;;;;;;;;;;;;;-144.99;81.91;52480.72;5050031;28;19982;-69
2023/02/28 02:44:45;;;;;;;;;;;;;;;-144.99;81.69;52550.00;5051186;28;19924;-69
2023/02/28 02:47:13;;;;;;;;;;;;;;;-144.99;81.61;52484.78;5051008;28;20460;-69
2023/02/28 02:49:43;;;;;;;;;;;;;;;-144.99;81.47;52521.47;5049248;28;19932;-69
2023/02/28 02:52:13;;;;;;;;;;;;;;;-144.99;81.74;52499.06;5052013;28;19998;-71
2023/02/28 02:54:42;;;;;;;;;;;;;;;-144.99;81.58;52488.84;5050068;28;19928;-68
2023/02/28 02:57:11;;;;;;;;;;;;;;;-144.99;81.33;52478.66;5049723;28;20016;-69
2023/02/28 02:59:39;;;;;;;;;;;;;;;-144.99;81.12;52525.56;5044599;28;19967;-69
2023/02/28 03:02:08;;;;;;;;;;;;;;;-144.99;80.96;52460.31;5051030;28;19968;-69
2023/02/28 03:04:40;;;;;;;;;;;;;;;-144.99;81.17;52541.84;5049705;28;19974;-69
2023/02/28 03:07:07;;;;;;;;;;;;;;;-144.99;81.34;52527.59;5049530;28;19929;-69
2023/02/28 03:09:35;;;;;;;;;;;;;;;-144.99;81.33;52484.78;5049648;28;20117;-68
2023/02/28 03:12:02;;;;;;;;;;;;;;;-144.99;81.58;52470.50;5047934;28;19978;-76
2023/02/28 03:14:36;;;;;;;;;;;;;;;-144.99;81.98;52492.94;5045598;28;19979;-67
2023/02/28 03:17:21;;;;;;;;;;;;;;;-144.99;82.20;52525.56;5048237;28;19971;-67
2023/02/28 03:19:52;;;;;;;;;;;;;;;-144.99;82.13;52484.78;5046636;28;19975;-66
2023/02/28 03:22:26;;;;;;;;;;;;;;;-144.99;82.14;52464.41;5048112;28;19946;-67
2023/02/28 03:24:57;;;;;;;;;;;;;;;-144.99;82.10;52527.59;5048484;28;19972;-66
2023/02/28 03:27:26;;;;;;;;;;;;;;;-144.99;82.00;52517.41;5047436;28;19990;-67
2023/02/28 03:29:56;;;;;;;;;;;;;;;-144.99;81.69;52505.16;5041322;28;19960;-69
2023/02/28 03:32:26;;;;;;;;;;;;;;;-144.99;81.72;52509.25;5048234;28;19968;-70
2023/02/28 03:34:57;;;;;;;;;;;;;;;-144.99;81.66;52501.09;5048886;28;19929;-70
2023/02/28 03:37:25;;;;;;;;;;;;;;;-144.99;81.72;52488.84;5048054;28;20101;-70
2023/02/28 03:39:55;;;;;;;;;;;;;;;-144.99;81.81;52480.72;5048624;28;19936;-70
2023/02/28 03:42:24;;;;;;;;;;;;;;;-144.99;81.91;52486.81;5049212;28;20009;-70
2023/02/28 03:44:53;;;;;;;;;;;;;;;-144.99;81.80;52550.00;5048975;28;19928;-71
2023/02/28 03:47:23;;;;;;;;;;;;;;;-144.99;81.79;52537.78;5045291;28;19933;-70
2023/02/28 03:49:53;;;;;;;;;;;;;;;-144.99;81.49;52521.47;5047038;28;19991;-70
2023/02/28 03:52:22;;;;;;;;;;;;;;;-144.99;81.58;52476.63;5039669;28;19980;-70
2023/02/28 03:54:52;;;;;;;;;;;;;;;-144.99;81.57;52537.78;5047615;28;20418;-70
2023/02/28 03:57:23;;;;;;;;;;;;;;;-144.99;81.77;52509.25;5048010;28;20028;-69
2023/02/28 03:59:55;;;;;;;;;;;;;;;-144.99;81.73;52527.59;5045629;28;20416;-70
2023/02/28 04:02:21;;;;;;;;;;;;;;;-144.99;81.79;52511.28;5044635;28;20271;-72
2023/02/28 04:04:48;;;;;;;;;;;;;;;-144.99;81.77;52484.78;5048642;28;19991;-72
2023/02/28 04:07:15;;;;;;;;;;;;;;;-144.99;81.80;52547.97;5051351;28;20318;-72
2023/02/28 04:09:42;;;;;;;;;;;;;;;-144.99;82.00;52517.41;5050518;28;19924;-72
2023/02/28 04:12:08;;;;;;;;;;;;;;;-144.99;82.09;52466.44;5045668;28;19979;-73
2023/02/28 04:14:35;;;;;;;;;;;;;;;-144.99;82.23;52497.00;5046942;28;20010;-73
2023/02/28 04:17:03;;;;;;;;;;;;;;;-144.99;82.27;52529.63;5043344;28;19986;-72
2023/02/28 04:19:29;;;;;;;;;;;;;;;-144.99;82.22;52545.94;5047884;28;19925;-72
2023/02/28 04:21:56;;;;;;;;;;;;;;;-144.99;82.26;52472.56;5047473;28;19964;-79
2023/02/28 04:24:23;;;;;;;;;;;;;;;-144.99;82.48;52545.94;5044657;28;20395;-77
2023/02/28 04:26:51;;;;;;;;;;;;;;;-144.99;82.58;52488.84;5043580;28;19983;-78
2023/02/28 04:29:20;;;;;;;;;;;;;;;-144.99;82.76;52505.16;5045705;28;19937;-79
2023/02/28 04:31:46;;;;;;;;;;;;;;;-144.99;82.89;52505.16;5047632;28;19929;-79
2023/02/28 04:34:14;;;;;;;;;;;;;;;-144.99;82.91;52517.41;5040939;28;20012;-78
2023/02/28 04:36:41;;;;;;;;;;;;;;;-144.99;83.10;52476.63;5049649;28;19967;-75
2023/02/28 04:39:09;;;;;;;;;;;;;;;-144.99;83.13;52509.25;5047113;28;19956;-75
2023/02/28 04:41:36;;;;;;;;;;;;;;;-144.99;83.35;52543.91;5047973;28;19925;-73
2023/02/28 04:44:02;;;;;;;;;;;;;;;-144.99;83.91;52488.84;5046958;28;19952;-76
2023/02/28 04:46:30;;;;;;;;;;;;;;;-144.99;84.00;52507.19;5048187;28;19925;-75
2023/02/28 04:48:56;;;;;;;;;;;;;;;-144.99;84.70;52541.84;5048941;28;19932;-76
2023/02/28 04:51:24;;;;;;;;;;;;;;;-144.99;84.71;52513.31;5046579;28;19925;-76
2023/02/28 04:53:51;;;;;;;;;;;;;;;-144.99;85.19;52492.94;5049721;28;19951;-77
2023/02/28 04:56:18;;;;;;;;;;;;;;;-144.99;84.84;52521.47;5053268;28;20039;-75
2023/02/28 04:58:45;;;;;;;;;;;;;;;-144.99;84.98;52541.84;5049785;28;19979;-75
2023/02/28 05:01:20;;;;;;;;;;;;;;;-144.99;85.12;52509.25;5046368;28;20006;-76
2023/02/28 05:03:46;;;;;;;;;;;;;;;-144.99;85.10;52505.16;5047907;28;20022;-76
2023/02/28 05:06:13;;;;;;;;;;;;;;;-144.99;85.31;52521.47;5040282;28;19979;-75
2023/02/28 05:08:41;;;;;;;;;;;;;;;-144.99;85.72;52509.25;5046050;28;19978;-75
2023/02/28 05:11:09;;;;;;;;;;;;;;;-144.99;85.59;52515.34;5044088;28;20382;-75
2023/02/28 05:13:35;;;;;;;;;;;;;;;-144.99;85.42;52497.00;5044683;28;20316;-75
2023/02/28 05:16:02;;;;;;;;;;;;;;;-144.99;85.53;52521.47;5043752;28;19925;-66
2023/02/28 05:18:28;;;;;;;;;;;;;;;-144.99;85.41;52525.56;5047195;28;20049;-66
2023/02/28 05:20:55;;;;;;;;;;;;;;;-144.99;85.38;52480.72;5046095;28;19964;-65
2023/02/28 05:23:23;;;;;;;;;;;;;;;-144.99;85.47;52497.00;5046203;28;20256;-73
2023/02/28 05:25:53;;;;;;;;;;;;;;;-144.99;85.40;52550.00;5039624;28;19960;-71
2023/02/28 05:28:20;;;;;;;;;;;;;;;-144.99;85.35;52513.31;5042798;28;19964;-72
2023/02/28 05:30:46;;;;;;;;;;;;;;;-144.99;85.48;52505.16;5047250;28;20012;-69
2023/02/28 05:33:13;;;;;;;;;;;;;;;-144.99;85.58;52476.63;5043387;28;20024;-68
2023/02/28 05:35:40;;;;;;;;;;;;;;;-144.99;85.47;52511.28;5043466;28;19978;-68
2023/02/28 05:38:07;;;;;;;;;;;;;;;-144.99;85.59;52509.25;5046734;28;20061;-66
2023/02/28 05:40:33;;;;;;;;;;;;;;;-144.99;86.34;52537.78;5047567;28;20028;-67
2023/02/28 05:43:01;;;;;;;;;;;;;;;-144.99;86.49;52509.25;5044608;28;20405;-66
2023/02/28 05:45:28;;;;;;;;;;;;;;;-144.99;86.07;52513.31;5050417;28;20346;-67
2023/02/28 05:47:54;;;;;;;;;;;;;;;-144.99;86.55;52541.84;5051323;28;20378;-66
2023/02/28 05:50:21;;;;;;;;;;;;;;;-144.99;86.36;52497.00;5048014;28;19925;-66
2023/02/28 05:52:49;;;;;;;;;;;;;;;-144.99;86.41;52523.50;5047385;28;20278;-72
2023/02/28 05:55:16;;;;;;;;;;;;;;;-144.99;86.29;52521.47;5046687;28;20026;-70
2023/02/28 05:57:43;;;;;;;;;;;;;;;-144.99;87.08;52480.72;5044904;28;19925;-71
2023/02/28 06:00:11;;;;;;;;;;;;;;;-144.99;88.25;52525.56;5049554;28;19939;-67
2023/02/28 06:02:44;;;;;;;;;;;;;;;-144.99;88.53;52525.56;5044175;28;19975;-75
2023/02/28 06:05:13;;;;;;;;;;;;;;;-144.99;88.20;52515.34;5051466;28;19925;-74
2023/02/28 06:07:40;;;;;;;;;;;;;;;-144.99;88.11;52499.06;5052027;28;19924;-74
2023/02/28 06:10:07;;;;;;;;;;;;;;;-144.99;88.00;52541.84;5053547;28;19924;-74
2023/02/28 06:12:33;;;;;;;;;;;;;;;-144.99;88.42;52541.84;5053112;28;19937;-74
2023/02/28 06:15:00;;;;;;;;;;;;;;;-144.99;88.23;52533.69;5045733;28;19929;-76
2023/02/28 06:17:28;;;;;;;;;;;;;;;-144.99;89.34;52525.56;5050435;28;19986;-75
2023/02/28 06:19:55;;;;;;;;;;;;;;;-144.99;88.72;52545.94;5053414;28;19925;-74
2023/02/28 06:22:21;;;;;;;;;;;;;;;-144.99;88.97;52550.00;5052681;28;19936;-74
2023/02/28 06:24:48;;;;;;;;;;;;;;;-144.99;88.81;52564.28;5063259;28;19928;-74
2023/02/28 06:27:14;;;;;;;;;;;;;;;-144.99;89.00;52501.09;5058730;28;20344;-74
2023/02/28 06:29:41;;;;;;;;;;;;;;;-144.99;89.53;52515.34;5061244;28;19925;-74
2023/02/28 06:32:07;;;;;;;;;;;;;;;-144.99;89.09;52492.94;5063824;28;20265;-75
2023/02/28 06:34:36;;;;;;;;;;;;;;;-144.99;88.77;52533.69;5056708;28;20266;-74
2023/02/28 06:37:04;;;;;;;;;;;;;;;-144.99;88.28;52517.41;5055214;28;19933;-74
2023/02/28 06:39:31;;;;;;;;;;;;;;;-144.99;88.79;52529.63;5053740;28;19932;-73
2023/02/28 06:41:58;;;;;;;;;;;;;;;-144.99;88.77;52513.31;5047679;28;20302;-66
2023/02/28 06:44:25;;;;;;;;;;;;;;;-144.99;88.25;52492.94;5053930;28;19925;-74
2023/02/28 06:46:52;;;;;;;;;;;;;;;-144.99;88.05;52476.63;5065587;28;20012;-74
2023/02/28 06:49:18;;;;;;;;;;;;;;;-144.99;88.14;52488.84;5067682;28;19913;-76
2023/02/28 06:51:46;;;;;;;;;;;;;;;-144.99;88.57;52509.25;5066752;28;19929;-75
2023/02/28 06:54:13;;;;;;;;;;;;;;;-144.99;87.63;52505.16;5055201;28;20002;-73
2023/02/28 06:56:39;;;;;;;;;;;;;;;-144.99;87.27;52501.09;4347379;28;10000727;-74
2023/02/28 06:59:06;;;;;;;;;;;;;;;-144.99;86.74;52501.09;5046176;28;20045;-74
2023/02/28 07:01:33;;;;;;;;;;;;;;;-144.99;86.21;52480.72;5046577;28;19940;-74
2023/02/28 07:04:00;;;;;;;;;;;;;;;-144.99;85.93;52521.47;5051199;28;19999;-73
2023/02/28 07:06:26;;;;;;;;;;;;;;;-144.99;85.47;52488.84;5046313;28;19962;-73
2023/02/28 07:08:54;;;;;;;;;;;;;;;-144.99;83.80;52517.41;5044355;28;20494;-73
2023/02/28 07:11:22;;;;;;;;;;;;;;;-144.99;83.15;52488.84;5041413;28;19936;-74
2023/02/28 07:13:48;;;;;;;;;;;;;;;-144.99;83.93;52505.16;5054459;28;19932;-74
2023/02/28 07:16:15;;;;;;;;;;;;;;;-144.99;83.94;52480.72;5059533;28;20433;-75
2023/02/28 07:18:41;;;;;;;;;;;;;;;-144.99;83.76;52482.75;5049795;28;20183;-75
2023/02/28 07:21:09;;;;;;;;;;;;;;;-144.99;82.79;52464.41;5047667;28;19967;-75
2023/02/28 07:23:37;;;;;;;;;;;;;;;-144.99;82.28;52488.84;5044187;28;19928;-75
2023/02/28 07:26:05;;;;;;;;;;;;;;;-144.99;81.76;52513.31;5046956;28;19924;-75
2023/02/28 07:28:32;;;;;;;;;;;;;;;-144.99;82.09;52480.72;5041300;28;19964;-75
2023/02/28 07:31:03;;;;;;;;;;;;;;;-144.99;81.29;52484.78;5040812;28;19971;-76
2023/02/28 07:33:30;;;;;;;;;;;;;;;-144.99;80.66;52472.56;5043988;28;20424;-75
2023/02/28 07:36:01;;;;;;;;;;;;;;;-144.99;79.90;52460.31;5037216;28;20066;-75
2023/02/28 07:38:27;;;;;;;;;;;;;;;-144.99;80.24;52497.00;5039463;28;19935;-75
2023/02/28 07:40:54;;;;;;;;;;;;;;;-144.99;79.41;52484.78;5046693;28;19976;-74
2023/02/28 07:43:22;;;;;;;;;;;;;;;-144.99;79.28;52480.72;5047751;28;19986;-74
2023/02/28 07:45:48;;;;;;;;;;;;;;;-144.99;78.61;52513.31;5041826;28;20019;-74
2023/02/28 07:48:15;;;;;;;;;;;;;;;-144.99;77.97;52509.25;5046178;28;20471;-74
2023/02/28 07:50:41;;;;;;;;;;;;;;;-144.99;77.41;52468.47;5045748;28;20020;-75
2023/02/28 07:53:08;;;;;;;;;;;;;;;-144.99;77.56;52454.22;5042847;28;19931;-74
2023/02/28 07:55:34;;;;;;;;;;;;;;;-144.99;76.88;52452.16;5046884;28;19984;-75
2023/02/28 07:58:01;;;;;;;;;;;;;;;-144.99;76.48;52492.94;5042507;28;20293;-75
2023/02/28 08:00:31;;;;;;;;;;;;;;;-144.99;76.68;52462.34;5044659;28;19983;-75
2023/02/28 08:02:58;;;;;;;;;;;;;;;-144.99;76.06;52476.63;5046296;28;19924;-75
2023/02/28 08:05:24;;;;;;;;;;;;;;;-144.99;75.62;52464.41;5051157;28;19929;-75
2023/02/28 08:07:51;;;;;;;;;;;;;;;-144.99;75.24;52452.16;5048758;28;20313;-76
2023/02/28 08:10:17;;;;;;;;;;;;;;;-144.99;75.63;52452.16;5044748;28;19992;-75
2023/02/28 08:12:44;;;;;;;;;;;;;;;-144.99;75.00;52448.09;5045876;28;20764;-75
2023/02/28 08:15:11;;;;;;;;;;;;;;;-144.99;74.15;52484.78;5044524;28;19944;-75
2023/02/28 08:17:39;;;;;;;;;;;;;;;-144.99;73.84;52456.25;5046331;28;19928;-75
2023/02/28 08:20:06;;;;;;;;;;;;;;;-144.99;74.18;52435.88;5047850;28;20333;-77
2023/02/28 08:22:33;;;;;;;;;;;;;;;-144.99;74.05;52460.31;5042429;28;20148;-75
2023/02/28 08:24:59;;;;;;;;;;;;;;;-144.99;73.66;52456.25;5043418;28;19925;-77
2023/02/28 08:27:26;;;;;;;;;;;;;;;-144.99;72.84;52456.25;5050508;28;19968;-75
2023/02/28 08:29:52;;;;;;;;;;;;;;;-144.99;73.42;52435.88;5043376;28;19956;-76
2023/02/28 08:32:19;;;;;;;;;;;;;;;-144.99;73.39;52470.50;5055364;28;20012;-77
2023/02/28 08:34:47;;;;;;;;;;;;;;;-144.99;73.12;52444.03;5044237;28;19937;-77
2023/02/28 08:37:13;;;;;;;;;;;;;;;-144.99;72.81;52444.03;5047762;28;20144;-76
2023/02/28 08:39:40;;;;;;;;;;;;;;;-144.99;72.13;52423.63;5047477;28;19967;-77
2023/02/28 08:42:07;;;;;;;;;;;;;;;-144.99;71.30;52456.25;5047857;28;20272;-77
2023/02/28 08:44:33;;;;;;;;;;;;;;;-144.99;70.89;52427.72;5047334;28;20238;-78
2023/02/28 08:47:00;;;;;;;;;;;;;;;-144.99;70.94;52419.56;5040221;28;19983;-77
2023/02/28 08:49:26;;;;;;;;;;;;;;;-144.99;70.58;52407.31;5042608;28;19925;-77
2023/02/28 08:51:55;;;;;;;;;;;;;;;-144.99;70.36;52413.44;5053966;28;19929;-77
2023/02/28 08:54:22;;;;;;;;;;;;;;;-144.99;70.39;52419.56;5056094;28;19925;-76
2023/02/28 08:56:49;;;;;;;;;;;;;;;-144.99;70.48;52435.88;5041280;28;20355;-76
2023/02/28 08:59:15;;;;;;;;;;;;;;;-144.99;70.59;52415.47;5046714;28;20416;-77
2023/02/28 09:01:43;;;;;;;;;;;;;;;-144.99;69.77;52403.25;5045702;28;19932;-77
2023/02/28 09:04:11;;;;;;;;;;;;;;;-144.99;69.75;52378.78;5043308;28;20046;-77
2023/02/28 09:06:38;;;;;;;;;;;;;;;-144.99;70.28;52407.31;5042607;28;20278;-77
2023/02/28 09:09:07;;;;;;;;;;;;;;;-144.99;70.65;52407.31;5037388;28;19983;-78
2023/02/28 09:11:34;;;;;;;;;;;;;;;-144.99;69.53;52386.94;5043501;28;19979;-76
2023/02/28 09:14:03;;;;;;;;;;;;;;;-144.99;69.90;52378.78;5044531;28;19929;-78
2023/02/28 09:16:30;;;;;;;;;;;;;;;-144.99;69.23;52407.31;5045171;28;19933;-76
2023/02/28 09:18:57;;;;;;;;;;;;;;;-144.99;68.97;52423.63;5043736;28;19925;-77
2023/02/28 09:21:23;;;;;;;;;;;;;;;-144.99;67.85;52427.72;5045781;28;19968;-77
2023/02/28 09:23:51;;;;;;;;;;;;;;;-144.99;67.93;52391.03;5046043;28;20324;-78
2023/02/28 09:26:20;;;;;;;;;;;;;;;-144.99;67.93;52435.88;5044859;28;19933;-79
2023/02/28 09:28:47;;;;;;;;;;;;;;;-144.99;67.38;52362.50;5047669;28;19948;-77
2023/02/28 09:31:15;;;;;;;;;;;;;;;-144.99;66.80;52366.56;5042459;28;20007;-77
2023/02/28 09:33:41;;;;;;;;;;;;;;;-144.99;66.19;52382.88;5045661;28;21310;-78
2023/02/28 09:36:08;;;;;;;;;;;;;;;-144.99;65.27;52391.03;5052258;28;20035;-78
2023/02/28 09:38:35;;;;;;;;;;;;;;;-144.99;65.93;52382.88;5071055;28;19998;-79
2023/02/28 09:41:02;;;;;;;;;;;;;;;-144.99;65.08;52366.56;5050111;28;19964;-77
2023/02/28 09:43:34;;;;;;;;;;;;;;;-144.99;64.49;52370.63;5036318;28;20364;-77
2023/02/28 09:46:03;;;;;;;;;;;;;;;-144.99;63.77;52378.78;5046136;28;20002;-79
2023/02/28 09:48:34;;;;;;;;;;;;;;;-144.99;63.56;52366.56;5042617;28;20059;-76
2023/02/28 09:51:03;;;;;;;;;;;;;;;-144.99;63.39;52346.19;5044622;28;19983;-78
2023/02/28 09:53:33;;;;;;;;;;;;;;;-144.99;62.22;52358.41;5040345;28;20020;-78
2023/02/28 09:56:02;;;;;;;;;;;;;;;-144.99;61.81;52374.72;5040799;28;19928;-78
2023/02/28 09:58:31;;;;;;;;;;;;;;;-144.99;62.01;52315.59;5042548;28;19964;-78
2023/02/28 10:01:01;;;;;;;;;;;;;;;-144.99;62.24;52299.31;5037167;28;19999;-78
2023/02/28 10:03:32;;;;;;;;;;;;;;;-144.99;61.97;52321.72;5045802;28;19974;-78
2023/02/28 10:06:04;;;;;;;;;;;;;;;-144.99;60.52;52276.88;5047487;28;19964;-79
2023/02/28 10:08:32;;;;;;;;;;;;;;;-144.99;60.22;52280.97;5048351;28;19928;-79
2023/02/28 10:11:01;;;;;;;;;;;;;;;-144.99;59.52;52317.66;5047351;28;19932;-79
2023/02/28 10:13:32;;;;;;;;;;;;;;;-144.99;59.48;52256.50;5047969;28;19944;-79
2023/02/28 10:16:02;;;;;;;;;;;;;;;-144.99;59.41;52248.34;5048858;28;19929;-78
2023/02/28 10:18:31;;;;;;;;;;;;;;;-144.99;58.42;52266.69;5064923;28;19913;-79
2023/02/28 10:21:00;;;;;;;;;;;;;;;-144.99;58.12;52219.81;5076329;28;19920;-78
2023/02/28 10:23:29;;;;;;;;;;;;;;;-144.99;57.51;52260.56;5046984;28;20341;-77
2023/02/28 10:25:58;;;;;;;;;;;;;;;-144.99;57.18;52221.84;5050588;28;20017;-78
2023/02/28 10:28:26;;;;;;;;;;;;;;;-144.99;56.52;52195.34;5067690;28;19928;-78
2023/02/28 10:30:54;;;;;;;;;;;;;;;-144.99;56.21;52191.28;5055135;28;19925;-78
2023/02/28 10:33:23;;;;;;;;;;;;;;;-144.99;55.69;52199.44;5051155;28;19941;-78
2023/02/28 10:35:50;;;;;;;;;;;;;;;-144.99;55.20;52181.09;5049531;28;19990;-78
2023/02/28 10:38:18;;;;;;;;;;;;;;;-144.99;54.99;52107.72;5049945;28;19932;-78
2023/02/28 10:40:45;;;;;;;;;;;;;;;-144.99;54.80;52158.66;5046092;28;19968;-78
2023/02/28 10:43:19;;;;;;;;;;;;;;;-144.99;54.38;52105.69;5047349;28;19932;-78
2023/02/28 10:45:54;;;;;;;;;;;;;;;-144.99;54.18;52077.16;5045863;28;19932;-77
2023/02/28 10:48:39;;;;;;;;;;;;;;;-144.99;53.70;52040.47;5047142;28;20033;-78
2023/02/28 10:51:07;;;;;;;;;;;;;;;-144.99;53.04;52062.88;5042943;28;20019;-79
2023/02/28 10:53:36;;;;;;;;;;;;;;;-144.99;53.01;52003.78;5047602;28;19956;-79
2023/02/28 10:56:04;;;;;;;;;;;;;;;-144.99;52.89;52032.31;5045961;28;20002;-80
2023/02/28 10:58:32;;;;;;;;;;;;;;;-144.99;53.04;52064.91;5040554;28;20346;-78
2023/02/28 11:00:59;;;;;;;;;;;;;;;-144.99;52.86;52083.25;5034425;28;20462;-79
2023/02/28 11:03:30;;;;;;;;;;;;;;;-144.99;53.11;52048.63;5046737;28;19943;-78
2023/02/28 11:05:58;;;;;;;;;;;;;;;-144.99;52.46;52052.69;5048049;28;20402;-79
2023/02/28 11:08:25;;;;;;;;;;;;;;;-144.99;52.14;52022.13;5040695;28;20436;-79
2023/02/28 11:10:56;;;;;;;;;;;;;;;-144.99;52.09;52032.31;5049897;28;19936;-79
2023/02/28 11:13:26;;;;;;;;;;;;;;;-144.99;52.12;51999.69;5039942;28;19933;-79
2023/02/28 11:15:54;;;;;;;;;;;;;;;-144.99;51.97;51995.63;5061573;28;19963;-79
2023/02/28 11:18:24;;;;;;;;;;;;;;;-144.99;52.20;52052.69;5065964;28;19955;-79
2023/02/28 11:20:51;;;;;;;;;;;;;;;-144.99;51.90;52048.63;5037535;28;19946;-81
2023/02/28 11:23:20;;;;;;;;;;;;;;;-144.99;52.04;52040.47;5039778;28;19968;-80
2023/02/28 11:25:49;;;;;;;;;;;;;;;-144.99;52.30;52020.09;5037539;28;19924;-80
2023/02/28 11:28:26;;;;;;;;;;;;;;;-144.99;51.80;52003.78;5048933;28;20017;-78
2023/02/28 11:31:07;;;;;;;;;;;;;;;-144.99;51.41;51991.56;5050202;28;19941;-80
2023/02/28 11:33:41;;;;;;;;;;;;;;;-144.99;51.08;51975.25;5037915;28;20274;-81
2023/02/28 11:36:11;;;;;;;;;;;;;;;-144.99;51.09;52028.22;5049690;28;19929;-80
2023/02/28 11:38:39;;;;;;;;;;;;;;;-144.99;52.10;52040.47;5038779;28;19970;-79
2023/02/28 11:41:13;;;;;;;;;;;;;;;-144.99;52.50;52073.06;5036172;28;20337;-78
2023/02/28 11:43:46;;;;;;;;;;;;;;;-144.99;52.63;52050.66;5051350;28;19929;-79
2023/02/28 11:46:22;;;;;;;;;;;;;;;-144.99;51.88;52081.22;5042668;28;19987;-79
2023/02/28 11:48:55;;;;;;;;;;;;;;;-144.99;51.86;52042.50;5047328;28;20443;-79
2023/02/28 11:51:24;;;;;;;;;;;;;;;-144.99;51.77;52024.16;5050944;28;20032;-79
2023/02/28 11:54:09;;;;;;;;;;;;;;;-144.99;51.49;52054.72;5038312;28;19955;-80
2023/02/28 11:56:39;;;;;;;;;;;;;;;-144.99;52.30;52034.34;5044612;28;20197;-82
2023/02/28 11:59:14;;;;;;;;;;;;;;;-144.99;51.21;51963.03;5053483;28;19955;-80
2023/02/28 12:01:51;;;;;;;;;;;;;;;-144.99;50.58;51981.38;5045691;28;20005;-79
2023/02/28 12:04:25;;;;;;;;;;;;;;;-144.99;50.51;51983.41;5052404;28;20408;-80
2023/02/28 12:06:59;;;;;;;;;;;;;;;-144.99;50.50;52016.00;5054227;28;19962;-81
2023/02/28 12:09:33;;;;;;;;;;;;;;;-144.99;50.46;52009.91;5039664;28;19980;-82
2023/02/28 12:12:10;;;;;;;;;;;;;;;-144.99;50.23;51991.56;5056090;28;19955;-81
2023/02/28 12:14:47;;;;;;;;;;;;;;;-144.99;50.12;52005.81;5042949;28;19935;-82
2023/02/28 12:17:22;;;;;;;;;;;;;;;-144.99;50.42;51987.47;5041409;28;19962;-81
2023/02/28 12:19:53;;;;;;;;;;;;;;;-144.99;50.33;51983.41;5066531;28;19937;-83
2023/02/28 12:22:28;;;;;;;;;;;;;;;-144.99;49.73;51973.22;5069266;28;19925;-82
2023/02/28 12:25:10;;;;;;;;;;;;;;;-144.99;50.13;52003.78;5063094;28;19935;-81
2023/02/28 12:27:41;;;;;;;;;;;;;;;-144.99;50.16;51991.56;5052301;28;19981;-81
2023/02/28 12:30:15;;;;;;;;;;;;;;;-144.99;49.68;51979.31;5049328;28;19933;-81
2023/02/28 12:32:43;;;;;;;;;;;;;;;-144.99;49.58;51969.13;5056734;28;19929;-81